This is the latest recevied weather packets stored in our database for station/object K8DJB-1. If no packets are shown the sender has not sent any weather packets the latest 1 day(s).
| Time | Temp. | Humidity | Pressure | Rain* | Wind** | Luminosity | Snow |
|---|---|---|---|---|---|---|---|
| 1836274784 | 18.89° C | 76% | 1018.8 hPa | 0 mm | 0.45 m/s, 345° | - | - |
| 1836274483 | 18.89° C | 76% | 1018.7 hPa | 0 mm | 0.89 m/s, 36° | - | - |
| 1836274333 | 18.89° C | 76% | 1018.9 hPa | 0 mm | 0 m/s | - | - |
| 1836274183 | 18.89° C | 76% | 1018.6 hPa | 0 mm | 0.45 m/s, 342° | - | - |
| 1836273884 | 19.44° C | 76% | 1018.6 hPa | 0 mm | 0.89 m/s, 31° | - | - |
| 1778033698 | 6.67° C | 73% | 1008.4 hPa | 0 mm | 0 m/s | - | - |
| 1778033398 | 6.67° C | 72% | 1008.3 hPa | 0 mm | 0 m/s | - | - |
| 1778033098 | 6.67° C | 71% | 1008.3 hPa | 0 mm | 0 m/s | - | - |
| 1778032798 | 6.67° C | 69% | 1008.3 hPa | 0 mm | 0 m/s | - | - |
| 1778032498 | 6.67° C | 68% | 1008.2 hPa | 0 mm | 0 m/s | - | - |
| 1778032198 | 7.22° C | 68% | 1008.4 hPa | 0 mm | 0 m/s | - | - |
| 1778031898 | 7.22° C | 68% | 1008.2 hPa | 0 mm | 0 m/s | - | - |
| 1778031598 | 7.22° C | 67% | 1008 hPa | 0 mm | 0.45 m/s, 232° | - | - |
| 1778031298 | 7.22° C | 67% | 1008 hPa | 0 mm | 0.45 m/s, 232° | - | - |
| 1778030753 | 7.22° C | 66% | 1007.8 hPa | 0 mm | 0.45 m/s, 232° | - | - |
| 1778030453 | 7.78° C | 66% | 1007.8 hPa | 0 mm | 0.89 m/s, 232° | - | - |
| 1778030153 | 7.78° C | 63% | 1007.7 hPa | 0 mm | 0.45 m/s, 232° | - | - |
| 1778029853 | 8.33° C | 63% | 1007.6 hPa | 0 mm | 0 m/s | - | - |
| 1778029553 | 8.33° C | 62% | 1007.7 hPa | 0 mm | 0.45 m/s, 232° | - | - |
| 1778029041 | 8.89° C | 60% | 1007.5 hPa | 0 mm | 0 m/s | - | - |
| 1778028741 | 9.44° C | 60% | 1007.8 hPa | 0 mm | 0 m/s | - | - |
| 1778028441 | 9.44° C | 60% | 1007.7 hPa | 0 mm | 0 m/s | - | - |
| 1778028141 | 10° C | 61% | 1007.8 hPa | 0 mm | 0 m/s | - | - |
| 1778027841 | 10° C | 59% | 1007.6 hPa | 0 mm | 0 m/s | - | - |
| 1778027541 | 10° C | 54% | 1007.6 hPa | 0 mm | 0 m/s | - | - |
* Rain latest hour (hover to see other rain measurements)
** Current wind speed in m/s (hover to see current wind gust speed)